createdAt,value
2022-12-28T11:52:42.587Z,83.23
2022-12-28T11:55:41.004Z,83.25
2022-12-28T11:58:53.339Z,83.49
2022-12-28T12:01:44.599Z,84.03
2022-12-28T12:04:43.123Z,83.76
2022-12-28T12:07:31.040Z,84.02
2022-12-28T12:10:30.086Z,84.10
2022-12-28T12:12:59.880Z,82.93
2022-12-28T12:15:39.920Z,83.26
2022-12-28T12:18:18.731Z,83.10
2022-12-28T12:20:54.468Z,83.31
2022-12-28T12:23:30.347Z,82.96
2022-12-28T12:26:03.349Z,83.49
2022-12-28T12:28:40.656Z,82.85
2022-12-28T12:31:15.541Z,81.59
2022-12-28T12:33:48.655Z,82.03
2022-12-28T12:36:42.781Z,79.82
2022-12-28T12:39:35.502Z,79.43
2022-12-28T12:42:14.742Z,79.28
2022-12-28T12:47:06.467Z,79.99
2022-12-28T12:49:53.656Z,79.31
2022-12-28T12:52:42.347Z,79.24
2022-12-28T12:55:25.068Z,79.29
2022-12-28T12:58:03.327Z,79.50
2022-12-28T13:00:49.000Z,79.35
2022-12-28T13:03:31.177Z,78.78
2022-12-28T13:06:05.432Z,79.92
2022-12-28T13:08:42.530Z,78.69
2022-12-28T13:11:16.482Z,77.55
2022-12-28T13:13:54.294Z,77.59
2022-12-28T13:16:29.892Z,76.02
2022-12-28T13:19:07.221Z,75.88
2022-12-28T13:21:46.119Z,76.83
2022-12-28T13:24:27.462Z,75.96
2022-12-28T13:27:02.607Z,76.37
2022-12-28T13:29:40.051Z,75.18
2022-12-28T13:32:34.328Z,75.81
2022-12-28T13:35:22.536Z,76.18
2022-12-28T13:38:06.068Z,76.42
2022-12-28T13:40:41.764Z,76.97
2022-12-28T13:43:46.624Z,76.75
2022-12-28T13:46:21.592Z,76.18
2022-12-28T13:48:59.525Z,75.27
2022-12-28T13:51:32.452Z,75.41
2022-12-28T13:54:05.113Z,75.50
2022-12-28T13:56:42.029Z,75.85
2022-12-28T13:59:18.512Z,75.53
2022-12-28T14:01:52.616Z,74.98
2022-12-28T14:07:25.401Z,75.55
2022-12-28T14:09:58.582Z,75.84
2022-12-28T14:12:32.514Z,75.52
2022-12-28T14:15:05.797Z,76.05
2022-12-28T14:17:41.250Z,76.10
2022-12-28T14:20:14.671Z,76.42
2022-12-28T14:22:49.026Z,76.45
2022-12-28T14:25:23.678Z,76.18
2022-12-28T14:28:02.069Z,76.54
2022-12-28T14:30:39.838Z,76.92
2022-12-28T14:33:24.794Z,76.78
2022-12-28T14:36:01.127Z,76.86
2022-12-28T14:38:36.003Z,77.07
2022-12-28T14:41:22.660Z,77.08
2022-12-28T14:43:58.198Z,77.24
2022-12-28T14:46:36.751Z,77.27
2022-12-28T14:49:38.317Z,77.46
2022-12-28T14:52:47.318Z,77.80
2022-12-28T14:55:35.935Z,77.92
2022-12-28T14:58:18.585Z,77.89
2022-12-28T15:01:00.418Z,78.45
2022-12-28T15:03:49.275Z,78.56
2022-12-28T15:06:22.317Z,78.38
2022-12-28T15:08:58.520Z,78.56
2022-12-28T15:11:32.401Z,78.56
2022-12-28T15:14:05.940Z,78.90
2022-12-28T15:16:40.782Z,78.74
2022-12-28T15:19:13.604Z,78.93
2022-12-28T15:21:46.295Z,79.20
2022-12-28T15:24:22.652Z,79.28
2022-12-28T15:26:59.064Z,79.09
2022-12-28T15:30:03.681Z,79.36
2022-12-28T15:32:24.524Z,79.90
2022-12-28T15:34:57.495Z,79.53
2022-12-28T15:37:30.496Z,79.63
2022-12-28T15:40:04.104Z,79.73
2022-12-28T15:42:40.583Z,79.91
2022-12-28T15:45:17.662Z,79.89
2022-12-28T15:47:50.706Z,80.30
2022-12-28T15:50:26.073Z,80.41
2022-12-28T15:53:01.820Z,80.02
2022-12-28T15:55:38.581Z,80.29
2022-12-28T15:58:13.596Z,80.41
2022-12-28T16:00:47.859Z,80.31
2022-12-28T16:03:20.679Z,80.43
2022-12-28T16:05:53.423Z,80.75
2022-12-28T16:08:25.846Z,81.21
2022-12-28T16:11:08.102Z,81.02
2022-12-28T16:13:42.143Z,81.17
2022-12-28T16:16:15.755Z,81.59
2022-12-28T16:18:48.697Z,81.17
2022-12-28T16:21:21.239Z,81.19
2022-12-28T16:23:53.810Z,81.52
2022-12-28T16:26:26.353Z,81.45
2022-12-28T16:29:00.203Z,81.55
2022-12-28T16:31:37.410Z,81.90
2022-12-28T16:34:12.677Z,81.88
2022-12-28T16:36:46.433Z,81.79
2022-12-28T16:39:21.062Z,81.70
2022-12-28T16:41:53.709Z,81.81
2022-12-28T16:44:29.486Z,82.16
2022-12-28T16:47:06.092Z,82.27
2022-12-28T16:49:41.850Z,81.95
2022-12-28T16:52:14.909Z,82.14
2022-12-28T16:54:47.403Z,82.09
2022-12-28T16:57:19.815Z,82.17
2022-12-28T16:59:52.823Z,82.41
2022-12-28T17:02:25.520Z,82.36
2022-12-28T17:04:58.431Z,82.31
2022-12-28T17:07:31.089Z,82.46
2022-12-28T17:10:03.584Z,82.43
2022-12-28T17:12:36.243Z,82.44
2022-12-28T17:15:10.620Z,82.59
2022-12-28T17:17:43.235Z,82.58
2022-12-28T17:20:17.610Z,82.38
2022-12-28T17:22:50.215Z,82.56
2022-12-28T17:25:22.749Z,82.96
2022-12-28T17:27:56.795Z,82.50
2022-12-28T17:30:32.218Z,82.54
2022-12-28T17:33:04.906Z,82.53
2022-12-28T17:35:40.137Z,82.41
2022-12-28T17:38:12.763Z,82.71
2022-12-28T17:40:45.184Z,82.65
2022-12-28T17:43:17.721Z,82.76
2022-12-28T17:45:50.588Z,82.68
2022-12-28T17:48:29.786Z,82.88
2022-12-28T17:51:05.392Z,82.89
2022-12-28T17:53:41.247Z,82.78
2022-12-28T17:56:16.214Z,82.82
2022-12-28T17:58:49.775Z,82.96
2022-12-28T18:01:22.766Z,83.28
2022-12-28T18:03:55.605Z,82.88
2022-12-28T18:06:29.025Z,83.13
2022-12-28T18:09:01.613Z,83.27
2022-12-28T18:11:34.204Z,83.22
2022-12-28T18:14:07.893Z,83.06
2022-12-28T18:16:41.382Z,83.07
2022-12-28T18:19:16.165Z,83.16
2022-12-28T18:21:49.001Z,83.06
2022-12-28T18:24:24.763Z,82.85
2022-12-28T18:26:57.267Z,83.05
2022-12-28T18:29:29.695Z,82.91
2022-12-28T18:32:02.431Z,82.85
2022-12-28T18:34:35.002Z,82.72
2022-12-28T18:37:08.059Z,82.66
2022-12-28T18:39:40.557Z,82.70
2022-12-28T18:42:18.399Z,82.65
2022-12-28T18:44:53.423Z,82.33
2022-12-28T18:47:25.926Z,82.44
2022-12-28T18:50:00.196Z,82.32
2022-12-28T18:52:35.998Z,82.23
2022-12-28T18:55:09.973Z,82.41
2022-12-28T18:57:42.482Z,82.40
2022-12-28T19:00:16.775Z,82.35
2022-12-28T19:02:53.427Z,82.37
2022-12-28T19:05:26.501Z,82.28
2022-12-28T19:07:58.958Z,82.17
2022-12-28T19:10:31.330Z,82.36
2022-12-28T19:13:03.766Z,82.02
2022-12-28T19:15:36.268Z,81.91
2022-12-28T19:18:09.824Z,81.91
2022-12-28T19:20:42.316Z,81.96
2022-12-28T19:23:15.297Z,81.95
2022-12-28T19:25:47.922Z,81.76
2022-12-28T19:28:23.338Z,81.74
2022-12-28T19:30:59.577Z,81.69
2022-12-28T19:33:37.421Z,81.67
2022-12-28T19:36:10.943Z,81.30
2022-12-28T19:38:43.688Z,81.57
2022-12-28T19:41:17.918Z,81.35
2022-12-28T19:43:50.655Z,81.70
2022-12-28T19:46:31.307Z,81.46
2022-12-28T19:49:05.524Z,81.49
2022-12-28T19:51:38.303Z,81.30
2022-12-28T19:54:11.058Z,81.26
2022-12-28T19:56:44.807Z,81.03
2022-12-28T19:59:18.765Z,81.04
2022-12-28T20:01:51.335Z,81.10
2022-12-28T20:04:23.906Z,80.63
2022-12-28T20:06:57.278Z,80.73
2022-12-28T20:09:29.795Z,80.90
2022-12-28T20:12:04.978Z,80.68
2022-12-28T20:14:38.100Z,80.71
2022-12-28T20:17:11.158Z,80.38
2022-12-28T20:19:43.686Z,80.51
2022-12-28T20:22:16.340Z,80.33
2022-12-28T20:24:48.821Z,80.70
2022-12-28T20:27:21.196Z,80.66
2022-12-28T20:29:53.557Z,80.50
2022-12-28T20:32:26.125Z,80.42
2022-12-28T20:34:59.632Z,80.11
2022-12-28T20:37:32.151Z,80.20
2022-12-28T20:40:05.904Z,79.78
2022-12-28T20:42:55.688Z,80.11
2022-12-28T20:45:28.074Z,80.02
2022-12-28T20:48:03.097Z,79.56
2022-12-28T20:50:36.815Z,79.43
2022-12-28T20:53:11.425Z,79.49
2022-12-28T20:55:43.832Z,79.74
2022-12-28T20:58:16.706Z,79.72
2022-12-28T21:00:49.994Z,79.57
2022-12-28T21:03:22.493Z,79.41
2022-12-28T21:05:57.356Z,79.40
2022-12-28T21:08:31.184Z,79.37
2022-12-28T21:11:08.450Z,79.59
2022-12-28T21:13:44.502Z,79.26
2022-12-28T21:16:17.988Z,79.42
2022-12-28T21:18:52.251Z,79.09
2022-12-28T21:21:24.867Z,79.05
2022-12-28T21:23:57.339Z,79.10
2022-12-28T21:26:29.785Z,78.95
2022-12-28T21:29:02.538Z,78.31
2022-12-28T21:31:34.925Z,78.54
2022-12-28T21:34:07.349Z,78.69
2022-12-28T21:36:39.937Z,78.63
2022-12-28T21:39:12.564Z,78.18
2022-12-28T21:41:51.072Z,78.30
2022-12-28T21:44:25.564Z,78.66
2022-12-28T21:46:58.984Z,78.18
2022-12-28T21:49:31.480Z,78.39
2022-12-28T21:52:04.170Z,78.12
2022-12-28T21:54:37.319Z,78.34
2022-12-28T21:57:11.694Z,78.58
2022-12-28T21:59:44.474Z,78.74
2022-12-28T22:02:38.468Z,78.72
2022-12-28T22:05:30.190Z,78.99
2022-12-28T22:08:16.438Z,78.88
2022-12-28T22:11:08.716Z,79.03
2022-12-28T22:13:41.294Z,78.90
2022-12-28T22:16:13.800Z,78.96
2022-12-28T22:19:02.335Z,78.90
2022-12-28T22:21:36.223Z,78.95
2022-12-28T22:24:09.373Z,79.27
2022-12-28T22:26:41.914Z,79.10
2022-12-28T22:29:15.507Z,79.08
2022-12-28T22:31:48.186Z,79.15
2022-12-28T22:34:20.992Z,79.44
2022-12-28T22:36:56.239Z,79.45
2022-12-28T22:39:28.822Z,79.47
2022-12-28T22:42:01.298Z,79.50
2022-12-28T22:44:33.817Z,79.55
2022-12-28T22:47:08.914Z,79.70
2022-12-28T22:49:41.364Z,79.63
2022-12-28T22:52:13.846Z,79.44
2022-12-28T22:54:47.936Z,79.80
2022-12-28T22:57:20.731Z,79.92
2022-12-28T22:59:53.214Z,79.84
2022-12-28T23:02:25.787Z,79.90
2022-12-28T23:05:01.128Z,79.85
2022-12-28T23:07:36.389Z,80.01
2022-12-28T23:10:11.416Z,79.97
2022-12-28T23:12:46.676Z,79.72
2022-12-28T23:15:19.971Z,79.71
2022-12-28T23:18:13.451Z,79.83
2022-12-28T23:21:03.447Z,79.74
2022-12-28T23:23:53.561Z,79.66
2022-12-28T23:26:42.374Z,79.64
2022-12-28T23:29:14.816Z,79.83
2022-12-28T23:31:47.518Z,79.78
2022-12-28T23:34:19.990Z,79.59
2022-12-28T23:36:55.488Z,79.52
2022-12-28T23:39:28.005Z,79.50
2022-12-28T23:42:00.460Z,79.39
2022-12-28T23:44:33.048Z,79.28
2022-12-28T23:47:06.268Z,79.23
2022-12-28T23:49:39.167Z,79.14
2022-12-28T23:52:11.642Z,79.18
2022-12-28T23:54:44.121Z,79.03
2022-12-28T23:57:16.678Z,78.82
2022-12-28T23:59:49.573Z,79.04
